sensor_id;sensor_type;location;lat;lon;timestamp;P1;durP1;ratioP1;P2;durP2;ratioP2
76123;SDS011;65173;48.066;20.976;2023-01-25T00:01:13;9.88;;;4.47;;
76123;SDS011;65173;48.066;20.976;2023-01-25T00:04:16;9.73;;;4.63;;
76123;SDS011;65173;48.066;20.976;2023-01-25T00:07:18;7.90;;;3.45;;
76123;SDS011;65173;48.066;20.976;2023-01-25T00:10:21;6.50;;;3.70;;
76123;SDS011;65173;48.066;20.976;2023-01-25T00:13:24;7.80;;;3.10;;
76123;SDS011;65173;48.066;20.976;2023-01-25T00:16:26;7.18;;;3.35;;
76123;SDS011;65173;48.066;20.976;2023-01-25T00:19:30;5.70;;;2.60;;
76123;SDS011;65173;48.066;20.976;2023-01-25T00:22:32;12.32;;;4.15;;
76123;SDS011;65173;48.066;20.976;2023-01-25T00:25:35;8.95;;;4.82;;
76123;SDS011;65173;48.066;20.976;2023-01-25T00:28:38;5.65;;;2.13;;
76123;SDS011;65173;48.066;20.976;2023-01-25T00:35:09;8.50;;;3.07;;
76123;SDS011;65173;48.066;20.976;2023-01-25T00:38:23;6.65;;;3.63;;
76123;SDS011;65173;48.066;20.976;2023-01-25T00:41:31;10.93;;;4.30;;
76123;SDS011;65173;48.066;20.976;2023-01-25T00:44:34;5.37;;;3.87;;
76123;SDS011;65173;48.066;20.976;2023-01-25T00:47:37;8.07;;;3.22;;
76123;SDS011;65173;48.066;20.976;2023-01-25T00:50:40;7.07;;;3.15;;
76123;SDS011;65173;48.066;20.976;2023-01-25T00:53:43;10.23;;;4.07;;
76123;SDS011;65173;48.066;20.976;2023-01-25T00:56:46;8.50;;;3.40;;
76123;SDS011;65173;48.066;20.976;2023-01-25T00:59:49;7.15;;;3.42;;
76123;SDS011;65173;48.066;20.976;2023-01-25T01:02:52;8.73;;;3.97;;
76123;SDS011;65173;48.066;20.976;2023-01-25T01:06:02;9.93;;;3.87;;
76123;SDS011;65173;48.066;20.976;2023-01-25T01:09:10;8.70;;;3.95;;
76123;SDS011;65173;48.066;20.976;2023-01-25T01:12:15;6.35;;;3.53;;
76123;SDS011;65173;48.066;20.976;2023-01-25T01:15:17;7.43;;;3.90;;
76123;SDS011;65173;48.066;20.976;2023-01-25T01:18:20;10.15;;;4.72;;
76123;SDS011;65173;48.066;20.976;2023-01-25T01:21:23;10.10;;;4.95;;
76123;SDS011;65173;48.066;20.976;2023-01-25T01:24:26;8.93;;;4.70;;
76123;SDS011;65173;48.066;20.976;2023-01-25T01:27:29;11.55;;;5.15;;
76123;SDS011;65173;48.066;20.976;2023-01-25T01:30:32;9.30;;;4.72;;
76123;SDS011;65173;48.066;20.976;2023-01-25T01:33:35;9.93;;;4.57;;
76123;SDS011;65173;48.066;20.976;2023-01-25T01:36:38;9.50;;;4.60;;
76123;SDS011;65173;48.066;20.976;2023-01-25T01:39:40;13.38;;;6.10;;
76123;SDS011;65173;48.066;20.976;2023-01-25T01:42:56;8.93;;;4.50;;
76123;SDS011;65173;48.066;20.976;2023-01-25T01:49:25;6.90;;;4.30;;
76123;SDS011;65173;48.066;20.976;2023-01-25T01:52:37;8.27;;;4.40;;
76123;SDS011;65173;48.066;20.976;2023-01-25T01:55:40;10.98;;;4.72;;
76123;SDS011;65173;48.066;20.976;2023-01-25T01:58:44;13.68;;;5.55;;
76123;SDS011;65173;48.066;20.976;2023-01-25T02:01:48;7.25;;;3.60;;
76123;SDS011;65173;48.066;20.976;2023-01-25T02:04:51;10.10;;;4.20;;
76123;SDS011;65173;48.066;20.976;2023-01-25T02:07:56;8.90;;;4.10;;
76123;SDS011;65173;48.066;20.976;2023-01-25T02:11:00;7.72;;;3.47;;
76123;SDS011;65173;48.066;20.976;2023-01-25T02:14:05;9.80;;;4.47;;
76123;SDS011;65173;48.066;20.976;2023-01-25T02:17:08;9.70;;;4.33;;
76123;SDS011;65173;48.066;20.976;2023-01-25T02:20:16;7.70;;;4.30;;
76123;SDS011;65173;48.066;20.976;2023-01-25T02:26:39;7.03;;;3.97;;
76123;SDS011;65173;48.066;20.976;2023-01-25T02:29:43;9.73;;;4.10;;
76123;SDS011;65173;48.066;20.976;2023-01-25T02:32:46;8.98;;;4.55;;
76123;SDS011;65173;48.066;20.976;2023-01-25T02:35:52;9.10;;;4.40;;
76123;SDS011;65173;48.066;20.976;2023-01-25T02:39:00;7.03;;;3.57;;
76123;SDS011;65173;48.066;20.976;2023-01-25T02:42:05;8.30;;;3.65;;
76123;SDS011;65173;48.066;20.976;2023-01-25T02:45:08;7.93;;;3.58;;
76123;SDS011;65173;48.066;20.976;2023-01-25T02:48:15;8.17;;;3.97;;
76123;SDS011;65173;48.066;20.976;2023-01-25T02:51:19;7.57;;;3.88;;
76123;SDS011;65173;48.066;20.976;2023-01-25T02:54:23;7.70;;;3.70;;
76123;SDS011;65173;48.066;20.976;2023-01-25T02:57:30;6.30;;;3.05;;
76123;SDS011;65173;48.066;20.976;2023-01-25T03:00:35;7.85;;;3.40;;
76123;SDS011;65173;48.066;20.976;2023-01-25T03:03:38;9.38;;;3.90;;
76123;SDS011;65173;48.066;20.976;2023-01-25T03:06:41;5.45;;;3.47;;
76123;SDS011;65173;48.066;20.976;2023-01-25T03:09:45;8.77;;;3.83;;
76123;SDS011;65173;48.066;20.976;2023-01-25T03:12:47;9.52;;;4.78;;
76123;SDS011;65173;48.066;20.976;2023-01-25T03:15:51;9.00;;;3.38;;
76123;SDS011;65173;48.066;20.976;2023-01-25T03:18:54;7.53;;;3.00;;
76123;SDS011;65173;48.066;20.976;2023-01-25T03:21:58;9.00;;;3.53;;
76123;SDS011;65173;48.066;20.976;2023-01-25T03:25:02;6.47;;;3.22;;
76123;SDS011;65173;48.066;20.976;2023-01-25T03:28:05;5.80;;;2.25;;
76123;SDS011;65173;48.066;20.976;2023-01-25T03:31:09;5.55;;;2.35;;
76123;SDS011;65173;48.066;20.976;2023-01-25T03:34:13;9.35;;;3.78;;
76123;SDS011;65173;48.066;20.976;2023-01-25T03:37:17;4.65;;;2.70;;
76123;SDS011;65173;48.066;20.976;2023-01-25T03:40:25;7.13;;;3.70;;
76123;SDS011;65173;48.066;20.976;2023-01-25T03:43:27;8.93;;;3.75;;
76123;SDS011;65173;48.066;20.976;2023-01-25T03:46:31;6.90;;;3.28;;
76123;SDS011;65173;48.066;20.976;2023-01-25T03:49:33;10.07;;;4.13;;
76123;SDS011;65173;48.066;20.976;2023-01-25T03:52:38;6.80;;;3.63;;
76123;SDS011;65173;48.066;20.976;2023-01-25T03:56:07;11.30;;;4.60;;
76123;SDS011;65173;48.066;20.976;2023-01-25T03:59:14;6.60;;;3.20;;
76123;SDS011;65173;48.066;20.976;2023-01-25T04:02:18;11.52;;;3.72;;
76123;SDS011;65173;48.066;20.976;2023-01-25T04:05:21;7.25;;;3.78;;
76123;SDS011;65173;48.066;20.976;2023-01-25T04:08:24;9.10;;;4.05;;
76123;SDS011;65173;48.066;20.976;2023-01-25T04:11:28;13.60;;;4.53;;
76123;SDS011;65173;48.066;20.976;2023-01-25T04:14:30;9.07;;;3.92;;
76123;SDS011;65173;48.066;20.976;2023-01-25T04:17:50;11.20;;;4.35;;
76123;SDS011;65173;48.066;20.976;2023-01-25T04:20:59;8.93;;;3.90;;
76123;SDS011;65173;48.066;20.976;2023-01-25T04:24:02;9.65;;;3.40;;
76123;SDS011;65173;48.066;20.976;2023-01-25T04:27:10;10.48;;;4.53;;
76123;SDS011;65173;48.066;20.976;2023-01-25T04:30:20;11.23;;;5.25;;
76123;SDS011;65173;48.066;20.976;2023-01-25T04:33:24;7.85;;;3.55;;
76123;SDS011;65173;48.066;20.976;2023-01-25T04:36:27;9.00;;;4.28;;
76123;SDS011;65173;48.066;20.976;2023-01-25T04:39:30;11.75;;;5.15;;
76123;SDS011;65173;48.066;20.976;2023-01-25T04:42:33;9.30;;;4.00;;
76123;SDS011;65173;48.066;20.976;2023-01-25T04:45:35;11.85;;;3.95;;
76123;SDS011;65173;48.066;20.976;2023-01-25T04:48:44;10.18;;;4.35;;
76123;SDS011;65173;48.066;20.976;2023-01-25T04:51:47;12.90;;;5.40;;
76123;SDS011;65173;48.066;20.976;2023-01-25T04:54:50;8.90;;;4.35;;
76123;SDS011;65173;48.066;20.976;2023-01-25T04:57:53;7.75;;;3.30;;
76123;SDS011;65173;48.066;20.976;2023-01-25T05:01:01;8.60;;;3.78;;
76123;SDS011;65173;48.066;20.976;2023-01-25T05:04:06;8.38;;;4.50;;
76123;SDS011;65173;48.066;20.976;2023-01-25T05:07:13;10.43;;;4.32;;
76123;SDS011;65173;48.066;20.976;2023-01-25T05:10:16;8.90;;;4.45;;
76123;SDS011;65173;48.066;20.976;2023-01-25T05:13:39;11.37;;;4.17;;
76123;SDS011;65173;48.066;20.976;2023-01-25T05:16:48;5.97;;;2.97;;
76123;SDS011;65173;48.066;20.976;2023-01-25T05:19:51;5.07;;;3.38;;
76123;SDS011;65173;48.066;20.976;2023-01-25T05:22:56;5.77;;;3.07;;
76123;SDS011;65173;48.066;20.976;2023-01-25T05:25:59;4.65;;;2.78;;
76123;SDS011;65173;48.066;20.976;2023-01-25T05:29:20;4.60;;;2.55;;
76123;SDS011;65173;48.066;20.976;2023-01-25T05:32:31;6.00;;;2.53;;
76123;SDS011;65173;48.066;20.976;2023-01-25T05:35:34;6.03;;;2.85;;
76123;SDS011;65173;48.066;20.976;2023-01-25T05:38:38;4.22;;;2.50;;
76123;SDS011;65173;48.066;20.976;2023-01-25T05:41:42;4.03;;;1.95;;
76123;SDS011;65173;48.066;20.976;2023-01-25T05:44:45;4.20;;;1.80;;
76123;SDS011;65173;48.066;20.976;2023-01-25T05:47:53;2.95;;;1.65;;
76123;SDS011;65173;48.066;20.976;2023-01-25T05:50:57;3.30;;;1.48;;
76123;SDS011;65173;48.066;20.976;2023-01-25T05:54:00;2.53;;;1.37;;
76123;SDS011;65173;48.066;20.976;2023-01-25T05:57:03;2.70;;;1.25;;
76123;SDS011;65173;48.066;20.976;2023-01-25T06:00:08;5.05;;;1.45;;
76123;SDS011;65173;48.066;20.976;2023-01-25T06:03:15;6.25;;;2.85;;
76123;SDS011;65173;48.066;20.976;2023-01-25T06:06:19;3.35;;;1.98;;
76123;SDS011;65173;48.066;20.976;2023-01-25T06:09:22;5.20;;;1.73;;
76123;SDS011;65173;48.066;20.976;2023-01-25T06:12:25;5.55;;;2.58;;
76123;SDS011;65173;48.066;20.976;2023-01-25T06:15:31;3.93;;;1.63;;
76123;SDS011;65173;48.066;20.976;2023-01-25T06:18:56;1.63;;;1.30;;
76123;SDS011;65173;48.066;20.976;2023-01-25T06:22:15;4.45;;;1.60;;
76123;SDS011;65173;48.066;20.976;2023-01-25T06:25:18;1.80;;;1.27;;
76123;SDS011;65173;48.066;20.976;2023-01-25T06:28:20;2.15;;;1.10;;
76123;SDS011;65173;48.066;20.976;2023-01-25T06:31:23;4.63;;;0.40;;
76123;SDS011;65173;48.066;20.976;2023-01-25T06:34:26;1.52;;;0.80;;
76123;SDS011;65173;48.066;20.976;2023-01-25T06:37:28;2.50;;;1.13;;
76123;SDS011;65173;48.066;20.976;2023-01-25T06:40:32;2.53;;;1.25;;
76123;SDS011;65173;48.066;20.976;2023-01-25T06:43:35;2.45;;;1.00;;
76123;SDS011;65173;48.066;20.976;2023-01-25T06:46:38;1.80;;;0.60;;
76123;SDS011;65173;48.066;20.976;2023-01-25T06:49:42;2.92;;;1.30;;
76123;SDS011;65173;48.066;20.976;2023-01-25T06:52:49;1.95;;;0.90;;
76123;SDS011;65173;48.066;20.976;2023-01-25T06:59:23;1.52;;;0.70;;
76123;SDS011;65173;48.066;20.976;2023-01-25T07:02:25;1.67;;;0.90;;
76123;SDS011;65173;48.066;20.976;2023-01-25T07:05:28;2.10;;;0.73;;
76123;SDS011;65173;48.066;20.976;2023-01-25T07:08:31;1.77;;;1.05;;
76123;SDS011;65173;48.066;20.976;2023-01-25T07:11:35;0.95;;;0.55;;
76123;SDS011;65173;48.066;20.976;2023-01-25T07:14:39;2.42;;;0.63;;
76123;SDS011;65173;48.066;20.976;2023-01-25T07:17:41;1.47;;;1.13;;
76123;SDS011;65173;48.066;20.976;2023-01-25T07:20:44;1.55;;;0.90;;
76123;SDS011;65173;48.066;20.976;2023-01-25T07:23:50;1.45;;;0.98;;
76123;SDS011;65173;48.066;20.976;2023-01-25T07:26:53;1.53;;;1.10;;
76123;SDS011;65173;48.066;20.976;2023-01-25T07:29:56;0.95;;;0.52;;
76123;SDS011;65173;48.066;20.976;2023-01-25T07:32:59;2.35;;;0.90;;
76123;SDS011;65173;48.066;20.976;2023-01-25T07:36:03;1.83;;;0.73;;
76123;SDS011;65173;48.066;20.976;2023-01-25T07:39:11;3.67;;;1.10;;
76123;SDS011;65173;48.066;20.976;2023-01-25T07:42:14;2.13;;;1.02;;
76123;SDS011;65173;48.066;20.976;2023-01-25T07:45:26;2.83;;;1.45;;
76123;SDS011;65173;48.066;20.976;2023-01-25T07:48:31;1.77;;;1.30;;
76123;SDS011;65173;48.066;20.976;2023-01-25T07:51:34;1.90;;;1.00;;
76123;SDS011;65173;48.066;20.976;2023-01-25T07:54:37;1.42;;;1.17;;
76123;SDS011;65173;48.066;20.976;2023-01-25T07:57:40;1.70;;;1.00;;
76123;SDS011;65173;48.066;20.976;2023-01-25T08:00:43;2.30;;;1.15;;
76123;SDS011;65173;48.066;20.976;2023-01-25T08:03:46;2.08;;;1.42;;
76123;SDS011;65173;48.066;20.976;2023-01-25T08:06:49;1.10;;;0.73;;
76123;SDS011;65173;48.066;20.976;2023-01-25T08:09:51;1.40;;;0.90;;
76123;SDS011;65173;48.066;20.976;2023-01-25T08:12:54;1.10;;;0.90;;
76123;SDS011;65173;48.066;20.976;2023-01-25T08:15:57;0.98;;;0.55;;
76123;SDS011;65173;48.066;20.976;2023-01-25T08:19:00;1.40;;;0.83;;
76123;SDS011;65173;48.066;20.976;2023-01-25T08:22:05;1.83;;;1.10;;
76123;SDS011;65173;48.066;20.976;2023-01-25T08:25:09;0.98;;;0.88;;
76123;SDS011;65173;48.066;20.976;2023-01-25T08:28:12;1.83;;;1.10;;
76123;SDS011;65173;48.066;20.976;2023-01-25T08:31:17;1.45;;;0.70;;
76123;SDS011;65173;48.066;20.976;2023-01-25T08:34:21;2.00;;;0.98;;
76123;SDS011;65173;48.066;20.976;2023-01-25T08:37:23;1.80;;;1.30;;
76123;SDS011;65173;48.066;20.976;2023-01-25T08:40:30;2.90;;;1.52;;
76123;SDS011;65173;48.066;20.976;2023-01-25T08:43:33;2.25;;;1.10;;
76123;SDS011;65173;48.066;20.976;2023-01-25T08:46:36;2.00;;;1.27;;
76123;SDS011;65173;48.066;20.976;2023-01-25T08:49:39;1.97;;;1.70;;
76123;SDS011;65173;48.066;20.976;2023-01-25T08:52:42;2.25;;;1.85;;
76123;SDS011;65173;48.066;20.976;2023-01-25T08:55:45;1.38;;;1.25;;
76123;SDS011;65173;48.066;20.976;2023-01-25T08:58:48;1.87;;;1.33;;
76123;SDS011;65173;48.066;20.976;2023-01-25T09:01:52;1.80;;;1.40;;
76123;SDS011;65173;48.066;20.976;2023-01-25T09:04:54;1.80;;;1.13;;
76123;SDS011;65173;48.066;20.976;2023-01-25T09:07:57;2.38;;;1.27;;
76123;SDS011;65173;48.066;20.976;2023-01-25T09:11:01;3.17;;;1.27;;
76123;SDS011;65173;48.066;20.976;2023-01-25T09:14:07;2.35;;;1.50;;
76123;SDS011;65173;48.066;20.976;2023-01-25T09:17:10;1.73;;;1.33;;
76123;SDS011;65173;48.066;20.976;2023-01-25T09:20:13;1.87;;;1.23;;
76123;SDS011;65173;48.066;20.976;2023-01-25T09:23:17;2.03;;;1.60;;
76123;SDS011;65173;48.066;20.976;2023-01-25T09:26:23;2.80;;;1.05;;
76123;SDS011;65173;48.066;20.976;2023-01-25T09:29:26;2.53;;;1.20;;
76123;SDS011;65173;48.066;20.976;2023-01-25T09:32:29;2.88;;;1.63;;
76123;SDS011;65173;48.066;20.976;2023-01-25T09:35:32;1.92;;;1.60;;
76123;SDS011;65173;48.066;20.976;2023-01-25T09:38:35;2.65;;;1.45;;
76123;SDS011;65173;48.066;20.976;2023-01-25T09:45:19;2.60;;;1.75;;
76123;SDS011;65173;48.066;20.976;2023-01-25T09:48:53;2.38;;;1.52;;
76123;SDS011;65173;48.066;20.976;2023-01-25T09:52:19;1.73;;;1.20;;
76123;SDS011;65173;48.066;20.976;2023-01-25T09:55:28;2.08;;;1.45;;
76123;SDS011;65173;48.066;20.976;2023-01-25T09:58:33;2.25;;;1.30;;
76123;SDS011;65173;48.066;20.976;2023-01-25T10:01:53;2.10;;;1.03;;
76123;SDS011;65173;48.066;20.976;2023-01-25T10:04:59;2.17;;;1.52;;
76123;SDS011;65173;48.066;20.976;2023-01-25T10:11:37;3.70;;;1.48;;
76123;SDS011;65173;48.066;20.976;2023-01-25T10:14:40;2.38;;;1.33;;
76123;SDS011;65173;48.066;20.976;2023-01-25T10:17:43;2.88;;;1.23;;
76123;SDS011;65173;48.066;20.976;2023-01-25T10:20:48;2.60;;;1.42;;
76123;SDS011;65173;48.066;20.976;2023-01-25T10:27:53;1.73;;;1.60;;
76123;SDS011;65173;48.066;20.976;2023-01-25T10:31:19;3.45;;;1.80;;
76123;SDS011;65173;48.066;20.976;2023-01-25T10:37:57;2.53;;;1.48;;
76123;SDS011;65173;48.066;20.976;2023-01-25T10:41:06;2.88;;;1.52;;
76123;SDS011;65173;48.066;20.976;2023-01-25T10:44:15;2.45;;;1.48;;
76123;SDS011;65173;48.066;20.976;2023-01-25T10:47:28;5.25;;;1.70;;
76123;SDS011;65173;48.066;20.976;2023-01-25T10:53:44;3.03;;;1.30;;
76123;SDS011;65173;48.066;20.976;2023-01-25T10:57:07;1.03;;;0.80;;
76123;SDS011;65173;48.066;20.976;2023-01-25T11:03:40;1.63;;;1.23;;
76123;SDS011;65173;48.066;20.976;2023-01-25T11:06:47;2.57;;;1.40;;
76123;SDS011;65173;48.066;20.976;2023-01-25T11:09:52;2.83;;;1.50;;
76123;SDS011;65173;48.066;20.976;2023-01-25T11:20:14;2.72;;;1.40;;
76123;SDS011;65173;48.066;20.976;2023-01-25T11:23:21;6.43;;;2.00;;
76123;SDS011;65173;48.066;20.976;2023-01-25T11:26:26;3.42;;;1.60;;
76123;SDS011;65173;48.066;20.976;2023-01-25T11:29:29;1.90;;;1.33;;
76123;SDS011;65173;48.066;20.976;2023-01-25T11:32:32;3.10;;;1.77;;
76123;SDS011;65173;48.066;20.976;2023-01-25T11:35:35;5.53;;;1.95;;
76123;SDS011;65173;48.066;20.976;2023-01-25T11:38:56;3.40;;;2.10;;
76123;SDS011;65173;48.066;20.976;2023-01-25T11:52:19;5.40;;;1.58;;
76123;SDS011;65173;48.066;20.976;2023-01-25T11:55:52;5.05;;;1.70;;
76123;SDS011;65173;48.066;20.976;2023-01-25T12:14:56;3.67;;;1.60;;
76123;SDS011;65173;48.066;20.976;2023-01-25T12:32:06;3.03;;;1.60;;
76123;SDS011;65173;48.066;20.976;2023-01-25T12:42:11;2.72;;;1.50;;
76123;SDS011;65173;48.066;20.976;2023-01-25T12:45:18;4.93;;;1.90;;
76123;SDS011;65173;48.066;20.976;2023-01-25T12:48:26;3.10;;;1.35;;
76123;SDS011;65173;48.066;20.976;2023-01-25T12:51:35;4.15;;;2.05;;
76123;SDS011;65173;48.066;20.976;2023-01-25T12:54:41;2.17;;;1.60;;
76123;SDS011;65173;48.066;20.976;2023-01-25T13:01:50;5.95;;;2.60;;
76123;SDS011;65173;48.066;20.976;2023-01-25T13:08:32;3.23;;;2.00;;
76123;SDS011;65173;48.066;20.976;2023-01-25T13:11:37;5.13;;;2.63;;
76123;SDS011;65173;48.066;20.976;2023-01-25T13:14:42;5.63;;;2.50;;
76123;SDS011;65173;48.066;20.976;2023-01-25T13:17:45;4.20;;;2.13;;
76123;SDS011;65173;48.066;20.976;2023-01-25T13:20:48;6.75;;;3.78;;
76123;SDS011;65173;48.066;20.976;2023-01-25T13:27:26;3.28;;;1.88;;
76123;SDS011;65173;48.066;20.976;2023-01-25T13:30:34;2.50;;;1.48;;
76123;SDS011;65173;48.066;20.976;2023-01-25T13:33:37;3.30;;;1.25;;
76123;SDS011;65173;48.066;20.976;2023-01-25T13:39:43;4.60;;;2.37;;
76123;SDS011;65173;48.066;20.976;2023-01-25T13:46:15;3.63;;;2.35;;
76123;SDS011;65173;48.066;20.976;2023-01-25T13:49:21;1.80;;;1.43;;
76123;SDS011;65173;48.066;20.976;2023-01-25T13:52:27;3.08;;;1.60;;
76123;SDS011;65173;48.066;20.976;2023-01-25T13:55:39;3.33;;;1.80;;
76123;SDS011;65173;48.066;20.976;2023-01-25T13:58:44;1.60;;;1.00;;
76123;SDS011;65173;48.066;20.976;2023-01-25T14:01:49;2.55;;;1.45;;
76123;SDS011;65173;48.066;20.976;2023-01-25T14:04:52;2.92;;;1.17;;
76123;SDS011;65173;48.066;20.976;2023-01-25T14:07:55;2.17;;;1.60;;
76123;SDS011;65173;48.066;20.976;2023-01-25T14:10:59;1.87;;;1.10;;
76123;SDS011;65173;48.066;20.976;2023-01-25T14:14:13;2.28;;;1.50;;
76123;SDS011;65173;48.066;20.976;2023-01-25T14:17:19;2.72;;;1.52;;
76123;SDS011;65173;48.066;20.976;2023-01-25T14:20:24;3.10;;;1.30;;
76123;SDS011;65173;48.066;20.976;2023-01-25T14:23:27;3.58;;;1.83;;
76123;SDS011;65173;48.066;20.976;2023-01-25T14:26:34;3.53;;;2.10;;
76123;SDS011;65173;48.066;20.976;2023-01-25T14:29:46;3.60;;;1.67;;
76123;SDS011;65173;48.066;20.976;2023-01-25T14:32:54;5.65;;;2.35;;
76123;SDS011;65173;48.066;20.976;2023-01-25T14:36:06;2.72;;;2.05;;
76123;SDS011;65173;48.066;20.976;2023-01-25T14:39:27;5.68;;;2.20;;
76123;SDS011;65173;48.066;20.976;2023-01-25T14:42:30;5.90;;;2.60;;
76123;SDS011;65173;48.066;20.976;2023-01-25T14:45:33;6.50;;;2.85;;
76123;SDS011;65173;48.066;20.976;2023-01-25T14:48:37;8.85;;;3.08;;
76123;SDS011;65173;48.066;20.976;2023-01-25T14:57:56;10.93;;;4.30;;
76123;SDS011;65173;48.066;20.976;2023-01-25T15:01:03;11.40;;;4.88;;
76123;SDS011;65173;48.066;20.976;2023-01-25T15:04:09;12.48;;;4.00;;
76123;SDS011;65173;48.066;20.976;2023-01-25T15:07:30;7.88;;;3.22;;
76123;SDS011;65173;48.066;20.976;2023-01-25T15:10:35;3.75;;;1.98;;
76123;SDS011;65173;48.066;20.976;2023-01-25T15:13:39;2.80;;;1.70;;
76123;SDS011;65173;48.066;20.976;2023-01-25T15:16:42;5.68;;;2.20;;
76123;SDS011;65173;48.066;20.976;2023-01-25T15:19:50;9.43;;;3.17;;
76123;SDS011;65173;48.066;20.976;2023-01-25T15:22:54;7.00;;;2.57;;
76123;SDS011;65173;48.066;20.976;2023-01-25T15:25:59;11.88;;;4.43;;
76123;SDS011;65173;48.066;20.976;2023-01-25T15:29:13;7.22;;;3.33;;
76123;SDS011;65173;48.066;20.976;2023-01-25T15:32:18;17.25;;;7.38;;
76123;SDS011;65173;48.066;20.976;2023-01-25T15:35:22;14.23;;;7.90;;
76123;SDS011;65173;48.066;20.976;2023-01-25T15:38:25;24.48;;;11.88;;
76123;SDS011;65173;48.066;20.976;2023-01-25T15:41:27;16.67;;;7.63;;
76123;SDS011;65173;48.066;20.976;2023-01-25T15:44:30;7.97;;;4.93;;
76123;SDS011;65173;48.066;20.976;2023-01-25T15:47:34;7.72;;;5.63;;
76123;SDS011;65173;48.066;20.976;2023-01-25T15:50:40;13.60;;;6.68;;
76123;SDS011;65173;48.066;20.976;2023-01-25T15:53:43;13.10;;;7.33;;
76123;SDS011;65173;48.066;20.976;2023-01-25T15:56:48;8.25;;;4.68;;
76123;SDS011;65173;48.066;20.976;2023-01-25T15:59:53;9.65;;;4.95;;
76123;SDS011;65173;48.066;20.976;2023-01-25T16:02:57;10.02;;;4.10;;
76123;SDS011;65173;48.066;20.976;2023-01-25T16:06:04;6.30;;;3.60;;
76123;SDS011;65173;48.066;20.976;2023-01-25T16:09:23;5.90;;;3.33;;
76123;SDS011;65173;48.066;20.976;2023-01-25T16:12:27;5.38;;;3.53;;
76123;SDS011;65173;48.066;20.976;2023-01-25T16:15:34;10.90;;;5.60;;
76123;SDS011;65173;48.066;20.976;2023-01-25T16:18:38;7.07;;;3.60;;
76123;SDS011;65173;48.066;20.976;2023-01-25T16:21:41;9.52;;;4.05;;
76123;SDS011;65173;48.066;20.976;2023-01-25T16:24:44;20.63;;;8.03;;
76123;SDS011;65173;48.066;20.976;2023-01-25T16:27:48;20.60;;;9.82;;
76123;SDS011;65173;48.066;20.976;2023-01-25T16:30:51;14.15;;;7.72;;
76123;SDS011;65173;48.066;20.976;2023-01-25T16:33:54;12.13;;;7.53;;
76123;SDS011;65173;48.066;20.976;2023-01-25T16:36:57;13.35;;;7.20;;
76123;SDS011;65173;48.066;20.976;2023-01-25T16:40:02;20.13;;;11.13;;
76123;SDS011;65173;48.066;20.976;2023-01-25T16:43:05;15.40;;;8.63;;
76123;SDS011;65173;48.066;20.976;2023-01-25T16:46:26;10.20;;;5.53;;
76123;SDS011;65173;48.066;20.976;2023-01-25T16:49:30;8.85;;;5.18;;
76123;SDS011;65173;48.066;20.976;2023-01-25T16:52:33;9.52;;;4.28;;
76123;SDS011;65173;48.066;20.976;2023-01-25T16:55:36;7.37;;;3.53;;
76123;SDS011;65173;48.066;20.976;2023-01-25T16:58:39;7.97;;;4.22;;
76123;SDS011;65173;48.066;20.976;2023-01-25T17:01:42;5.22;;;3.30;;
76123;SDS011;65173;48.066;20.976;2023-01-25T17:04:44;5.88;;;3.42;;
76123;SDS011;65173;48.066;20.976;2023-01-25T17:07:48;4.53;;;3.47;;
76123;SDS011;65173;48.066;20.976;2023-01-25T17:10:54;6.65;;;2.78;;
76123;SDS011;65173;48.066;20.976;2023-01-25T17:13:59;3.95;;;2.05;;
76123;SDS011;65173;48.066;20.976;2023-01-25T17:17:01;6.00;;;2.90;;
76123;SDS011;65173;48.066;20.976;2023-01-25T17:20:06;6.40;;;2.90;;
76123;SDS011;65173;48.066;20.976;2023-01-25T17:23:15;14.35;;;5.75;;
76123;SDS011;65173;48.066;20.976;2023-01-25T17:26:18;19.67;;;8.10;;
76123;SDS011;65173;48.066;20.976;2023-01-25T17:29:29;23.30;;;8.77;;
76123;SDS011;65173;48.066;20.976;2023-01-25T17:32:32;19.73;;;8.82;;
76123;SDS011;65173;48.066;20.976;2023-01-25T17:35:35;32.90;;;12.80;;
76123;SDS011;65173;48.066;20.976;2023-01-25T17:38:38;29.85;;;11.25;;
76123;SDS011;65173;48.066;20.976;2023-01-25T17:41:42;31.83;;;13.02;;
76123;SDS011;65173;48.066;20.976;2023-01-25T17:44:46;29.80;;;12.00;;
76123;SDS011;65173;48.066;20.976;2023-01-25T17:47:48;42.40;;;15.33;;
76123;SDS011;65173;48.066;20.976;2023-01-25T17:51:01;47.78;;;18.05;;
76123;SDS011;65173;48.066;20.976;2023-01-25T17:54:05;75.28;;;26.00;;
76123;SDS011;65173;48.066;20.976;2023-01-25T17:57:08;56.23;;;20.13;;
76123;SDS011;65173;48.066;20.976;2023-01-25T18:00:12;77.40;;;25.63;;
76123;SDS011;65173;48.066;20.976;2023-01-25T18:03:18;95.05;;;33.88;;
76123;SDS011;65173;48.066;20.976;2023-01-25T18:06:23;103.80;;;36.92;;
76123;SDS011;65173;48.066;20.976;2023-01-25T18:09:27;60.13;;;22.20;;
76123;SDS011;65173;48.066;20.976;2023-01-25T18:12:33;82.65;;;28.77;;
76123;SDS011;65173;48.066;20.976;2023-01-25T18:15:36;65.88;;;24.05;;
76123;SDS011;65173;48.066;20.976;2023-01-25T18:18:39;65.27;;;26.10;;
76123;SDS011;65173;48.066;20.976;2023-01-25T18:21:44;44.38;;;20.10;;
76123;SDS011;65173;48.066;20.976;2023-01-25T18:24:47;75.22;;;31.38;;
76123;SDS011;65173;48.066;20.976;2023-01-25T18:27:50;96.17;;;39.40;;
76123;SDS011;65173;48.066;20.976;2023-01-25T18:30:59;44.30;;;21.30;;
76123;SDS011;65173;48.066;20.976;2023-01-25T18:34:05;61.85;;;27.13;;
76123;SDS011;65173;48.066;20.976;2023-01-25T18:37:07;32.65;;;14.75;;
76123;SDS011;65173;48.066;20.976;2023-01-25T18:40:20;34.80;;;15.32;;
76123;SDS011;65173;48.066;20.976;2023-01-25T18:43:23;51.95;;;23.17;;
76123;SDS011;65173;48.066;20.976;2023-01-25T18:46:26;30.33;;;15.13;;
76123;SDS011;65173;48.066;20.976;2023-01-25T18:49:29;26.83;;;12.77;;
76123;SDS011;65173;48.066;20.976;2023-01-25T18:52:33;22.10;;;11.10;;
76123;SDS011;65173;48.066;20.976;2023-01-25T18:55:36;29.15;;;14.55;;
76123;SDS011;65173;48.066;20.976;2023-01-25T18:58:40;21.13;;;10.80;;
76123;SDS011;65173;48.066;20.976;2023-01-25T19:01:44;27.08;;;11.73;;
76123;SDS011;65173;48.066;20.976;2023-01-25T19:04:47;20.48;;;10.07;;
76123;SDS011;65173;48.066;20.976;2023-01-25T19:07:52;19.27;;;10.32;;
76123;SDS011;65173;48.066;20.976;2023-01-25T19:14:05;16.75;;;8.95;;
76123;SDS011;65173;48.066;20.976;2023-01-25T19:17:09;10.27;;;6.15;;
76123;SDS011;65173;48.066;20.976;2023-01-25T19:20:13;7.07;;;4.13;;
76123;SDS011;65173;48.066;20.976;2023-01-25T19:23:16;7.38;;;4.10;;
76123;SDS011;65173;48.066;20.976;2023-01-25T19:26:19;7.13;;;3.47;;
76123;SDS011;65173;48.066;20.976;2023-01-25T19:29:24;8.33;;;4.37;;
76123;SDS011;65173;48.066;20.976;2023-01-25T19:32:26;6.20;;;3.83;;
76123;SDS011;65173;48.066;20.976;2023-01-25T19:35:29;10.35;;;5.03;;
76123;SDS011;65173;48.066;20.976;2023-01-25T19:38:35;12.57;;;5.75;;
76123;SDS011;65173;48.066;20.976;2023-01-25T19:41:40;12.52;;;4.75;;
76123;SDS011;65173;48.066;20.976;2023-01-25T19:44:43;11.55;;;4.90;;
76123;SDS011;65173;48.066;20.976;2023-01-25T19:47:47;11.32;;;5.38;;
76123;SDS011;65173;48.066;20.976;2023-01-25T19:50:53;7.30;;;4.03;;
76123;SDS011;65173;48.066;20.976;2023-01-25T19:53:59;8.73;;;4.22;;
76123;SDS011;65173;48.066;20.976;2023-01-25T19:57:06;8.63;;;4.40;;
76123;SDS011;65173;48.066;20.976;2023-01-25T20:00:10;12.20;;;4.87;;
76123;SDS011;65173;48.066;20.976;2023-01-25T20:03:15;14.90;;;7.47;;
76123;SDS011;65173;48.066;20.976;2023-01-25T20:06:18;53.80;;;20.58;;
76123;SDS011;65173;48.066;20.976;2023-01-25T20:09:22;40.53;;;15.98;;
76123;SDS011;65173;48.066;20.976;2023-01-25T20:12:29;56.97;;;18.30;;